Time;durP1;ratioP1;P1;durP2;ratioP2;P2;SDS_P1;SDS_P2;PMS_P1;PMS_P2;Temp;Humidity;BMP_temperature;BMP_pressure;BME280_temperature;BME280_humidity;BME280_pressure;Samples;Min_cycle;Max_cycle;Signal;HPM_P1;HPM_P2
2023/07/06 00:02:00;;;;;;;14.48;4.07;;;;;;;12.13;100.00;100928.53;4984350;28;20572;-51
2023/07/06 00:04:26;;;;;;;15.63;3.70;;;;;;;12.14;100.00;100936.53;4978094;28;20206;-50
2023/07/06 00:06:52;;;;;;;8.98;3.40;;;;;;;12.09;100.00;100941.22;4976999;28;20185;-49
2023/07/06 00:09:18;;;;;;;12.75;3.55;;;;;;;12.02;100.00;100941.53;4974639;28;20176;-48
2023/07/06 00:11:44;;;;;;;13.15;4.07;;;;;;;11.98;100.00;100938.09;4982519;28;20670;-49
2023/07/06 00:14:11;;;;;;;11.40;3.40;;;;;;;12.16;100.00;100941.84;4985209;28;20197;-48
2023/07/06 00:16:41;;;;;;;10.95;3.58;;;;;;;12.05;100.00;100946.81;4974107;28;20197;-49
2023/07/06 00:19:08;;;;;;;13.02;3.55;;;;;;;12.00;100.00;100943.41;4980317;28;20436;-50
2023/07/06 00:21:34;;;;;;;12.20;3.50;;;;;;;11.99;100.00;100942.56;4978077;28;20181;-50
2023/07/06 00:24:00;;;;;;;13.77;3.47;;;;;;;12.06;100.00;100956.59;4976461;28;20576;-51
2023/07/06 00:26:26;;;;;;;13.23;3.83;;;;;;;12.03;100.00;100959.41;4978094;28;20181;-50
2023/07/06 00:28:53;;;;;;;8.30;3.25;;;;;;;12.05;100.00;100962.91;4977160;28;20219;-48
2023/07/06 00:31:32;;;;;;;13.40;3.90;;;;;;;12.02;100.00;100957.66;4977200;28;20569;-49
2023/07/06 00:34:05;;;;;;;12.80;3.30;;;;;;;12.11;100.00;100973.38;4986397;28;20288;-50
2023/07/06 00:36:32;;;;;;;11.55;3.88;;;;;;;12.07;100.00;100958.31;4974015;28;20633;-51
2023/07/06 00:39:01;;;;;;;10.65;3.63;;;;;;;12.00;100.00;100962.22;4974357;28;20189;-50
2023/07/06 00:41:27;;;;;;;9.65;3.30;;;;;;;11.95;100.00;100960.59;4979323;28;20185;-52
2023/07/06 00:43:55;;;;;;;11.68;3.40;;;;;;;12.01;100.00;100956.78;4991031;28;20198;-50
2023/07/06 00:46:25;;;;;;;13.45;3.88;;;;;;;12.07;100.00;100975.34;4978322;28;20276;-49
2023/07/06 00:48:54;;;;;;;14.18;3.22;;;;;;;12.08;100.00;100969.00;4979197;28;20181;-51
2023/07/06 00:51:28;;;;;;;8.43;3.65;;;;;;;12.07;100.00;100977.13;4976248;28;20599;-48
2023/07/06 00:54:01;;;;;;;10.90;3.55;;;;;;;12.13;100.00;100976.88;4991414;28;20197;-48
2023/07/06 00:56:36;;;;;;;12.07;3.55;;;;;;;12.05;100.00;100979.03;4980174;28;20194;-49
2023/07/06 00:59:05;;;;;;;6.38;2.92;;;;;;;11.99;100.00;100979.28;4981498;28;20205;-52
2023/07/06 01:01:34;;;;;;;11.80;3.35;;;;;;;11.98;100.00;100985.56;4984840;28;20190;-48
2023/07/06 01:04:03;;;;;;;16.08;4.35;;;;;;;11.93;100.00;100981.25;4983555;28;20205;-51
2023/07/06 01:06:37;;;;;;;9.02;3.08;;;;;;;11.89;100.00;100985.00;4981911;28;20667;-49
2023/07/06 01:09:04;;;;;;;9.50;3.35;;;;;;;11.95;100.00;100994.63;4984971;28;20203;-50
2023/07/06 01:11:31;;;;;;;14.98;3.13;;;;;;;11.89;100.00;100986.81;4979713;28;20182;-49
2023/07/06 01:13:58;;;;;;;12.52;3.45;;;;;;;11.82;100.00;100991.53;4993583;28;20300;-51
2023/07/06 01:16:32;;;;;;;7.85;3.08;;;;;;;11.84;100.00;100995.03;4977114;28;20177;-49
2023/07/06 01:19:23;;;;;;;7.93;3.05;;;;;;;11.76;100.00;100999.84;4997035;28;20238;-51
2023/07/06 01:21:56;;;;;;;7.85;3.40;;;;;;;11.73;100.00;101005.34;4989029;28;20194;-49
2023/07/06 01:24:49;;;;;;;14.93;3.42;;;;;;;11.68;100.00;101007.34;4974617;28;20329;-48
2023/07/06 01:27:28;;;;;;;12.13;3.28;;;;;;;11.68;100.00;101010.91;4994378;28;20652;-49
2023/07/06 01:30:26;;;;;;;8.02;2.90;;;;;;;11.66;100.00;101012.75;4977058;28;20297;-48
2023/07/06 01:33:02;;;;;;;9.13;3.03;;;;;;;11.61;100.00;101024.59;4966086;28;20688;-50
2023/07/06 01:35:50;;;;;;;10.02;3.03;;;;;;;11.62;100.00;101023.69;4978889;28;20307;-51
2023/07/06 01:38:16;;;;;;;9.73;3.47;;;;;;;11.62;100.00;101024.56;4974847;28;20269;-49
2023/07/06 01:40:42;;;;;;;8.00;3.10;;;;;;;11.62;100.00;101029.06;4995554;28;20782;-51
2023/07/06 01:43:09;;;;;;;8.75;2.95;;;;;;;11.60;100.00;101025.56;4976711;28;20284;-50
2023/07/06 01:45:35;;;;;;;8.90;3.17;;;;;;;11.61;100.00;101033.56;4976676;28;20214;-50
2023/07/06 01:48:05;;;;;;;10.05;2.97;;;;;;;11.58;100.00;101043.53;4993084;28;20552;-50
2023/07/06 01:51:13;;;;;;;10.65;3.70;;;;;;;11.57;100.00;101023.88;4975459;28;20197;-48
2023/07/06 01:53:50;;;;;;;6.75;3.15;;;;;;;11.66;100.00;101036.06;4997095;28;20206;-48
2023/07/06 01:56:25;;;;;;;8.57;3.13;;;;;;;11.66;100.00;101036.06;4998529;28;20204;-49
2023/07/06 01:58:59;;;;;;;12.02;3.42;;;;;;;11.68;100.00;101037.72;4994861;28;20683;-49
2023/07/06 02:01:29;;;;;;;11.52;3.55;;;;;;;11.66;100.00;101038.75;4994443;28;20191;-48
2023/07/06 02:03:56;;;;;;;14.43;3.53;;;;;;;11.64;100.00;101035.25;4979859;28;20692;-49
2023/07/06 02:06:22;;;;;;;9.85;2.95;;;;;;;11.68;100.00;101040.41;4976451;28;20190;-50
2023/07/06 02:08:49;;;;;;;9.02;3.22;;;;;;;11.65;100.00;101045.03;4975084;28;20192;-51
2023/07/06 02:11:19;;;;;;;9.75;3.70;;;;;;;11.67;100.00;101044.03;4980244;28;20205;-48
2023/07/06 02:13:45;;;;;;;8.75;3.50;;;;;;;11.63;100.00;101049.56;4994948;28;20197;-50
2023/07/06 02:16:10;;;;;;;10.52;3.85;;;;;;;11.67;100.00;101059.25;4979938;28;20185;-49
2023/07/06 02:18:36;;;;;;;13.05;4.28;;;;;;;11.66;100.00;101057.53;4979568;28;20181;-48
2023/07/06 02:21:03;;;;;;;9.73;4.07;;;;;;;11.62;100.00;101069.31;4993497;28;20196;-50
2023/07/06 02:23:29;;;;;;;6.55;4.07;;;;;;;11.62;100.00;101063.94;4999901;28;20559;-50
2023/07/06 02:25:55;;;;;;;13.98;4.80;;;;;;;11.64;100.00;101071.00;4974384;28;20526;-48
2023/07/06 02:28:21;;;;;;;14.82;4.20;;;;;;;11.62;100.00;101072.84;4978422;28;20182;-47
2023/07/06 02:30:54;;;;;;;7.68;4.25;;;;;;;11.63;100.00;101085.38;4975086;28;20194;-50
2023/07/06 02:33:20;;;;;;;11.23;4.07;;;;;;;11.69;100.00;101084.22;4994109;28;20197;-49
2023/07/06 02:35:46;;;;;;;9.07;4.43;;;;;;;11.64;100.00;101086.22;4976968;28;20189;-48
2023/07/06 02:38:17;;;;;;;13.15;4.22;;;;;;;11.66;100.00;101095.09;4974661;28;20194;-48
2023/07/06 02:40:43;;;;;;;11.57;4.65;;;;;;;11.69;100.00;101101.19;4977913;28;20190;-48
2023/07/06 02:43:08;;;;;;;13.32;4.30;;;;;;;11.67;100.00;101092.34;4979088;28;20775;-48
2023/07/06 02:45:35;;;;;;;8.70;4.18;;;;;;;11.76;100.00;101109.88;4981099;28;20240;-49
2023/07/06 02:48:01;;;;;;;14.00;4.78;;;;;;;11.72;100.00;101108.28;4977557;28;20199;-50
2023/07/06 02:50:27;;;;;;;6.93;3.85;;;;;;;11.73;100.00;101108.22;4976493;28;20315;-50
2023/07/06 02:52:53;;;;;;;7.63;4.03;;;;;;;11.79;100.00;101109.78;4977116;28;20216;-49
2023/07/06 02:55:18;;;;;;;7.05;3.85;;;;;;;11.75;100.00;101114.38;4975660;28;20205;-48
2023/07/06 02:57:44;;;;;;;11.52;4.70;;;;;;;11.74;100.00;101114.44;4978225;28;20192;-48
2023/07/06 03:00:16;;;;;;;7.55;4.10;;;;;;;11.75;100.00;101129.63;4984929;28;20726;-50
2023/07/06 03:02:43;;;;;;;7.30;3.85;;;;;;;11.78;100.00;101124.13;4976611;28;20585;-48
2023/07/06 03:05:10;;;;;;;6.07;4.38;;;;;;;11.77;100.00;101130.44;4992976;28;20304;-50
2023/07/06 03:07:35;;;;;;;9.20;4.15;;;;;;;11.78;100.00;101126.81;4993364;28;20307;-51
2023/07/06 03:10:03;;;;;;;9.05;4.32;;;;;;;11.83;100.00;101142.75;4998779;28;20196;-51
2023/07/06 03:12:36;;;;;;;6.78;4.35;;;;;;;11.81;100.00;101132.09;4976189;28;20209;-49
2023/07/06 03:15:15;;;;;;;6.97;4.00;;;;;;;11.87;100.00;101137.22;4978761;28;20456;-49
2023/07/06 03:17:49;;;;;;;7.55;4.82;;;;;;;11.86;100.00;101139.97;4989064;28;20292;-49
2023/07/06 03:20:19;;;;;;;9.10;4.32;;;;;;;11.88;100.00;101143.50;4979828;28;20185;-49
2023/07/06 03:22:51;;;;;;;7.72;4.00;;;;;;;11.90;100.00;101147.88;4983146;28;20185;-48
2023/07/06 03:25:18;;;;;;;8.95;4.22;;;;;;;11.90;100.00;101152.38;4977504;28;20194;-48
2023/07/06 03:27:46;;;;;;;10.85;4.07;;;;;;;11.87;100.00;101149.75;4975922;28;20189;-50
2023/07/06 03:30:14;;;;;;;8.25;4.00;;;;;;;11.91;100.00;101160.34;4976772;28;20178;-48
2023/07/06 03:32:40;;;;;;;9.50;4.03;;;;;;;11.86;100.00;101167.69;4984703;28;20664;-50
2023/07/06 03:35:08;;;;;;;7.18;4.28;;;;;;;11.90;100.00;101163.97;4982830;28;20200;-49
2023/07/06 03:37:36;;;;;;;7.72;3.60;;;;;;;11.91;100.00;101175.59;4972909;28;20281;-50
2023/07/06 03:40:02;;;;;;;8.98;3.80;;;;;;;11.88;100.00;101181.94;4977343;28;20185;-48
2023/07/06 03:42:27;;;;;;;5.65;3.45;;;;;;;11.90;100.00;101172.03;4979519;28;20197;-49
2023/07/06 03:44:55;;;;;;;7.45;3.45;;;;;;;11.91;100.00;101175.59;4975501;28;20224;-49
2023/07/06 03:47:23;;;;;;;7.95;3.80;;;;;;;11.94;100.00;101172.81;4975522;28;20189;-48
2023/07/06 03:49:49;;;;;;;6.72;3.28;;;;;;;11.94;100.00;101179.03;4975452;28;20232;-48
2023/07/06 03:52:17;;;;;;;7.90;3.38;;;;;;;12.06;100.00;101179.50;4976312;28;20185;-49
2023/07/06 03:54:44;;;;;;;5.57;3.13;;;;;;;12.02;100.00;101185.91;4978506;28;20204;-49
2023/07/06 03:57:11;;;;;;;5.20;3.00;;;;;;;11.98;100.00;101178.91;4973709;28;20216;-48
2023/07/06 03:59:38;;;;;;;7.93;3.80;;;;;;;12.00;100.00;101179.72;4974726;28;20184;-48
2023/07/06 04:02:09;;;;;;;4.95;3.30;;;;;;;12.03;100.00;101188.56;4975385;28;20520;-48
2023/07/06 04:04:35;;;;;;;7.72;3.42;;;;;;;11.99;100.00;101181.53;4973563;28;20213;-50
2023/07/06 04:07:01;;;;;;;4.10;3.33;;;;;;;12.02;100.00;101186.78;4977881;28;20190;-48
2023/07/06 04:09:28;;;;;;;5.80;3.58;;;;;;;12.07;100.00;101192.88;4978518;28;20566;-50
2023/07/06 04:11:54;;;;;;;9.02;3.40;;;;;;;12.09;100.00;101201.75;4975443;28;20209;-48
2023/07/06 04:14:25;;;;;;;9.25;3.83;;;;;;;12.13;100.00;101192.66;4974336;28;20285;-50
2023/07/06 04:16:51;;;;;;;4.45;3.60;;;;;;;12.19;100.00;101210.31;4975262;28;20190;-48
2023/07/06 04:19:17;;;;;;;7.15;3.78;;;;;;;12.19;100.00;101199.56;4977770;28;20656;-48
2023/07/06 04:21:43;;;;;;;9.13;3.90;;;;;;;12.25;100.00;101206.53;4992972;28;20185;-48
2023/07/06 04:24:08;;;;;;;8.38;3.30;;;;;;;12.31;100.00;101206.25;4978429;28;20258;-47
2023/07/06 04:26:34;;;;;;;5.45;3.33;;;;;;;12.41;100.00;101206.78;4977655;28;20223;-47
2023/07/06 04:28:59;;;;;;;5.30;3.20;;;;;;;12.38;100.00;101207.78;4993685;28;20270;-47
2023/07/06 04:31:25;;;;;;;10.98;3.25;;;;;;;12.43;100.00;101199.53;4973985;28;20674;-47
2023/07/06 04:33:50;;;;;;;6.93;3.55;;;;;;;12.35;100.00;101203.41;4974345;28;20209;-47
2023/07/06 04:36:17;;;;;;;4.22;3.03;;;;;;;12.47;100.00;101207.41;4974932;28;20185;-47
2023/07/06 04:38:43;;;;;;;10.13;3.35;;;;;;;12.52;100.00;101212.59;4978021;28;20190;-48
2023/07/06 04:41:12;;;;;;;7.60;3.60;;;;;;;12.61;100.00;101209.53;4975885;28;20194;-50
2023/07/06 04:43:37;;;;;;;4.03;3.00;;;;;;;12.64;100.00;101201.38;4978272;28;20248;-47
2023/07/06 04:46:03;;;;;;;8.38;3.40;;;;;;;12.72;100.00;101211.78;4981243;28;20272;-47
2023/07/06 04:48:32;;;;;;;7.78;3.53;;;;;;;12.77;100.00;101205.31;4978349;28;20490;-49
2023/07/06 04:50:59;;;;;;;7.07;3.63;;;;;;;12.78;100.00;101207.03;4978626;28;20192;-47
2023/07/06 04:53:25;;;;;;;8.90;3.20;;;;;;;12.81;100.00;101208.72;4974559;28;20182;-49
2023/07/06 04:55:51;;;;;;;7.53;3.95;;;;;;;12.96;100.00;101200.00;4974759;28;20196;-47
2023/07/06 04:58:17;;;;;;;5.95;3.40;;;;;;;13.05;100.00;101211.31;4972708;28;20173;-48
2023/07/06 05:00:45;;;;;;;6.88;3.67;;;;;;;13.12;100.00;101192.19;4975383;28;20282;-47
2023/07/06 05:03:11;;;;;;;7.68;3.22;;;;;;;13.30;100.00;101193.22;4976750;28;20268;-47
2023/07/06 05:05:43;;;;;;;7.32;2.83;;;;;;;13.31;100.00;101186.00;4973114;28;20209;-47
2023/07/06 05:08:13;;;;;;;7.55;3.50;;;;;;;13.38;100.00;101193.78;4971193;28;20194;-48
2023/07/06 05:10:38;;;;;;;6.28;3.28;;;;;;;13.47;100.00;101191.59;4972662;28;20219;-48
2023/07/06 05:13:05;;;;;;;5.07;3.40;;;;;;;13.44;100.00;101189.91;4976280;28;20186;-47
2023/07/06 05:15:31;;;;;;;6.82;3.03;;;;;;;13.53;100.00;101188.63;4973559;28;20713;-48
2023/07/06 05:17:57;;;;;;;7.07;3.42;;;;;;;13.53;100.00;101186.81;4975525;28;20189;-48
2023/07/06 05:20:23;;;;;;;9.40;3.03;;;;;;;13.60;100.00;101198.19;4975650;28;20193;-47
2023/07/06 05:22:49;;;;;;;8.48;3.03;;;;;;;13.66;100.00;101197.91;4976437;28;20548;-47
2023/07/06 05:25:19;;;;;;;8.40;3.05;;;;;;;13.53;100.00;101194.88;4982171;28;20228;-47
2023/07/06 05:27:46;;;;;;;7.68;3.00;;;;;;;13.58;100.00;101192.00;4975090;28;20206;-46
2023/07/06 05:30:12;;;;;;;4.25;2.67;;;;;;;13.83;100.00;101183.66;4979322;28;20268;-48
2023/07/06 05:32:37;;;;;;;5.40;2.55;;;;;;;13.99;100.00;101198.19;4973931;28;20182;-48
2023/07/06 05:35:03;;;;;;;5.93;2.50;;;;;;;14.19;100.00;101188.25;4978220;28;20297;-48
2023/07/06 05:37:29;;;;;;;6.50;2.35;;;;;;;14.08;100.00;101185.22;4978277;28;21055;-48
2023/07/06 05:39:54;;;;;;;7.13;2.15;;;;;;;14.03;100.00;101193.50;4976320;28;20690;-48
2023/07/06 05:42:20;;;;;;;7.28;2.38;;;;;;;13.76;100.00;101184.91;4978396;28;20181;-48
2023/07/06 05:44:46;;;;;;;6.38;2.53;;;;;;;13.58;100.00;101192.88;4994407;28;20220;-48
2023/07/06 05:47:12;;;;;;;3.95;2.17;;;;;;;13.48;100.00;101194.22;4985591;28;20177;-47
2023/07/06 05:49:38;;;;;;;3.33;2.15;;;;;;;13.40;100.00;101196.38;4977153;28;20601;-48
2023/07/06 05:52:04;;;;;;;7.38;2.10;;;;;;;13.49;100.00;101206.75;4977485;28;20193;-47
2023/07/06 05:54:30;;;;;;;3.83;2.10;;;;;;;13.60;100.00;101209.84;4980661;28;20215;-48
2023/07/06 05:56:57;;;;;;;6.05;1.90;;;;;;;13.85;100.00;101200.63;4979367;28;20556;-48
2023/07/06 05:59:26;;;;;;;6.28;2.03;;;;;;;14.02;100.00;101198.03;4981625;28;20259;-47
2023/07/06 06:01:53;;;;;;;5.22;1.88;;;;;;;14.08;100.00;101212.16;4979091;28;20203;-51
2023/07/06 06:04:19;;;;;;;3.38;1.98;;;;;;;14.27;100.00;101198.69;4999959;28;20218;-48
2023/07/06 06:06:51;;;;;;;3.72;2.05;;;;;;;14.22;100.00;101199.78;4972839;28;20211;-48
2023/07/06 06:09:17;;;;;;;4.15;1.98;;;;;;;14.28;100.00;101216.59;4973790;28;20191;-48
2023/07/06 06:11:42;;;;;;;2.95;1.70;;;;;;;14.32;100.00;101216.41;4976852;28;20268;-49
2023/07/06 06:14:08;;;;;;;5.55;2.13;;;;;;;14.50;100.00;101208.38;4975013;28;20302;-49
2023/07/06 06:16:34;;;;;;;5.03;2.20;;;;;;;14.59;100.00;101197.19;4972872;28;20190;-50
2023/07/06 06:19:01;;;;;;;3.35;1.63;;;;;;;14.46;100.00;101215.75;4976385;28;20213;-49
2023/07/06 06:21:29;;;;;;;6.55;2.15;;;;;;;14.64;100.00;101208.59;4974985;28;20207;-48
2023/07/06 06:23:55;;;;;;;6.68;1.90;;;;;;;14.98;100.00;101209.63;4975080;28;20213;-48
2023/07/06 06:26:21;;;;;;;5.90;2.33;;;;;;;14.91;100.00;101208.16;4974582;28;20709;-51
2023/07/06 06:28:47;;;;;;;3.65;1.80;;;;;;;15.09;100.00;101212.66;4978937;28;20335;-49
2023/07/06 06:31:14;;;;;;;4.57;1.83;;;;;;;15.34;100.00;101212.25;4975666;28;20672;-48
2023/07/06 06:33:40;;;;;;;7.18;1.92;;;;;;;15.80;100.00;101212.53;4976044;28;20399;-51
2023/07/06 06:36:07;;;;;;;4.43;2.58;;;;;;;16.00;100.00;101205.19;4977312;28;20185;-47
2023/07/06 06:38:34;;;;;;;3.75;1.73;;;;;;;15.88;100.00;101200.47;4977851;28;20197;-48
2023/07/06 06:41:05;;;;;;;7.32;1.77;;;;;;;15.52;100.00;101199.59;4980238;28;20186;-47
2023/07/06 06:43:31;;;;;;;4.75;1.70;;;;;;;15.46;100.00;101213.47;4975977;28;20248;-48
2023/07/06 06:45:56;;;;;;;5.38;2.05;;;;;;;15.74;100.00;101212.91;4975920;28;20613;-49
2023/07/06 06:48:22;;;;;;;6.28;1.90;;;;;;;15.81;100.00;101222.41;4977759;28;20538;-49
2023/07/06 06:50:47;;;;;;;3.13;1.52;;;;;;;16.23;100.00;101225.56;4976073;28;20276;-48
2023/07/06 06:53:13;;;;;;;5.97;2.28;;;;;;;16.20;100.00;101214.88;4976284;28;20264;-47
2023/07/06 06:55:39;;;;;;;4.75;2.35;;;;;;;15.70;100.00;101229.28;4979558;28;20715;-49
2023/07/06 06:58:04;;;;;;;2.83;1.95;;;;;;;16.11;100.00;101229.78;4978937;28;20545;-48
2023/07/06 07:00:30;;;;;;;6.13;2.28;;;;;;;16.16;100.00;101222.31;4979425;28;20555;-48
2023/07/06 07:02:57;;;;;;;5.20;1.77;;;;;;;16.41;100.00;101229.91;4978582;28;20640;-51
2023/07/06 07:05:23;;;;;;;6.15;2.03;;;;;;;16.26;100.00;101225.38;4978061;28;20209;-49
2023/07/06 07:07:50;;;;;;;6.35;1.98;;;;;;;16.34;100.00;101231.22;4977542;28;20549;-49
2023/07/06 07:10:16;;;;;;;8.27;2.35;;;;;;;16.58;100.00;101234.38;4978405;28;20272;-49
2023/07/06 07:12:43;;;;;;;4.38;2.50;;;;;;;16.09;100.00;101237.09;4977571;28;20316;-48
2023/07/06 07:15:14;;;;;;;5.05;2.15;;;;;;;16.04;100.00;101239.19;4978847;28;20209;-47
2023/07/06 07:17:39;;;;;;;5.80;2.30;;;;;;;16.17;100.00;101253.78;4985897;28;20205;-49
2023/07/06 07:20:06;;;;;;;6.20;2.70;;;;;;;16.14;100.00;101251.25;4974356;28;20332;-49
2023/07/06 07:22:32;;;;;;;7.07;2.30;;;;;;;15.95;100.00;101251.38;4973458;28;20565;-48
2023/07/06 07:24:58;;;;;;;9.18;2.58;;;;;;;16.11;100.00;101245.13;4976451;28;20231;-48
2023/07/06 07:27:25;;;;;;;5.57;2.50;;;;;;;16.86;100.00;101257.19;4973131;28;20560;-48
2023/07/06 07:29:53;;;;;;;7.20;2.50;;;;;;;16.42;100.00;101244.31;4980913;28;20256;-48
2023/07/06 07:32:20;;;;;;;4.57;2.50;;;;;;;16.27;100.00;101262.28;4988705;28;20240;-48
2023/07/06 07:34:50;;;;;;;6.97;2.13;;;;;;;16.03;100.00;101254.56;4974488;28;20534;-48
2023/07/06 07:37:18;;;;;;;6.35;2.33;;;;;;;16.06;100.00;101254.38;4979417;28;20173;-48
2023/07/06 07:39:48;;;;;;;9.23;2.40;;;;;;;15.88;100.00;101266.19;4974666;28;20269;-48
2023/07/06 07:42:14;;;;;;;8.10;2.72;;;;;;;16.12;100.00;101272.09;4976290;28;20177;-49
2023/07/06 07:44:47;;;;;;;7.68;2.88;;;;;;;16.34;100.00;101279.03;4974695;28;20245;-49
2023/07/06 07:47:18;;;;;;;10.27;2.80;;;;;;;16.61;100.00;101269.38;4976034;28;20217;-48
2023/07/06 07:49:47;;;;;;;9.88;3.40;;;;;;;17.18;98.79;101274.25;4975782;28;20181;-47
2023/07/06 07:52:14;;;;;;;8.02;2.75;;;;;;;17.47;95.77;101253.56;4978519;28;20188;-49
2023/07/06 07:54:40;;;;;;;5.10;2.30;;;;;;;17.90;93.65;101247.38;4977294;28;20342;-48
2023/07/06 07:57:09;;;;;;;7.70;2.47;;;;;;;17.79;91.52;101248.00;4969039;28;20276;-48
2023/07/06 07:59:35;;;;;;;7.47;2.57;;;;;;;18.08;91.23;101251.66;4975974;28;21103;-48
2023/07/06 08:02:01;;;;;;;5.32;2.28;;;;;;;17.93;89.96;101247.19;4977890;28;20439;-48
2023/07/06 08:04:27;;;;;;;7.25;2.50;;;;;;;17.89;88.86;101248.34;4978223;28;20212;-48
2023/07/06 08:06:52;;;;;;;26.88;3.13;;;;;;;18.35;88.56;101245.44;4980288;28;20177;-48
2023/07/06 08:09:18;;;;;;;10.57;2.35;;;;;;;18.00;86.79;101256.69;4978632;28;20649;-49
2023/07/06 08:11:46;;;;;;;5.10;2.10;;;;;;;17.48;86.66;101254.44;4977036;28;20196;-48
2023/07/06 08:14:13;;;;;;;6.38;2.42;;;;;;;17.35;87.05;101262.41;4976093;28;20206;-48
2023/07/06 08:16:42;;;;;;;5.32;2.15;;;;;;;16.97;86.85;101246.63;4973756;28;20196;-49
2023/07/06 08:19:08;;;;;;;5.13;2.03;;;;;;;16.85;88.09;101263.56;4973526;28;20193;-48
2023/07/06 08:21:34;;;;;;;4.95;2.08;;;;;;;16.82;89.68;101275.44;4975801;28;20573;-48
2023/07/06 08:24:00;;;;;;;5.30;1.92;;;;;;;16.62;91.40;101283.78;4977667;28;20280;-48
2023/07/06 08:26:29;;;;;;;3.20;1.70;;;;;;;16.56;92.13;101289.53;4973597;28;20216;-49
2023/07/06 08:28:55;;;;;;;4.20;1.80;;;;;;;16.64;91.33;101287.28;4982674;28;20185;-49
2023/07/06 08:31:21;;;;;;;5.53;1.85;;;;;;;16.58;90.38;101279.50;4976879;28;20200;-49
2023/07/06 08:33:48;;;;;;;3.13;1.73;;;;;;;16.39;89.98;101291.34;4976065;28;20224;-48
2023/07/06 08:36:20;;;;;;;5.20;2.17;;;;;;;16.28;89.42;101296.47;4974259;28;20563;-48
2023/07/06 08:38:46;;;;;;;5.72;1.70;;;;;;;16.37;88.36;101285.13;4973220;28;20241;-47
2023/07/06 08:41:38;;;;;;;4.72;1.85;;;;;;;16.11;89.15;101302.78;4977175;28;20201;-48
2023/07/06 08:44:05;;;;;;;6.68;1.80;;;;;;;15.67;92.39;101308.69;4973196;28;20594;-47
2023/07/06 08:46:36;;;;;;;8.65;2.53;;;;;;;15.69;95.68;101322.13;4973502;28;20620;-48
2023/07/06 08:49:03;;;;;;;7.88;2.22;;;;;;;15.76;98.44;101329.84;4973019;28;20193;-47
2023/07/06 08:51:35;;;;;;;6.20;1.88;;;;;;;15.82;100.00;101332.22;4976625;28;20185;-48
2023/07/06 08:54:03;;;;;;;5.35;2.03;;;;;;;15.96;100.00;101334.22;4972286;28;20225;-48
2023/07/06 08:56:33;;;;;;;9.75;2.47;;;;;;;15.96;100.00;101334.22;4974779;28;20174;-49
2023/07/06 08:59:03;;;;;;;4.72;2.10;;;;;;;16.03;100.00;101351.84;4977204;28;20219;-49
2023/07/06 09:01:30;;;;;;;6.82;1.85;;;;;;;16.19;100.00;101351.03;4976001;28;20584;-47
2023/07/06 09:04:06;;;;;;;5.03;2.17;;;;;;;16.65;99.45;101335.88;4975575;28;20217;-48
2023/07/06 09:06:37;;;;;;;6.63;2.20;;;;;;;17.09;96.53;101337.94;4976286;28;20186;-48
2023/07/06 09:09:02;;;;;;;6.85;2.20;;;;;;;17.15;93.60;101339.41;4977033;28;20238;-47
2023/07/06 09:11:33;;;;;;;5.78;1.90;;;;;;;17.34;92.17;101336.53;4973746;28;20194;-49
2023/07/06 09:14:06;;;;;;;5.05;1.80;;;;;;;16.83;89.87;101339.41;4978031;28;20200;-48
2023/07/06 09:16:36;;;;;;;7.97;1.88;;;;;;;16.74;89.85;101345.31;4994637;28;20601;-47
2023/07/06 09:19:11;;;;;;;4.38;1.45;;;;;;;16.47;88.82;101345.03;4981979;28;20261;-47
2023/07/06 09:21:37;;;;;;;10.63;1.95;;;;;;;16.25;88.91;101354.28;4983760;28;20486;-48
2023/07/06 09:24:02;;;;;;;9.18;2.05;;;;;;;16.16;89.55;101365.59;4980746;28;20212;-47
2023/07/06 09:26:35;;;;;;;3.95;1.77;;;;;;;16.11;90.56;101359.53;4983748;28;20193;-48
2023/07/06 09:29:34;;;;;;;3.00;1.80;;;;;;;16.15;91.12;101361.13;4980815;28;20169;-48
2023/07/06 09:32:20;;;;;;;3.88;1.38;;;;;;;15.95;91.00;101373.00;4974572;28;20213;-48
2023/07/06 09:34:50;;;;;;;2.22;1.90;;;;;;;15.87;91.80;101372.50;4978238;28;21119;-47
2023/07/06 09:37:20;;;;;;;7.40;2.15;;;;;;;16.03;91.71;101373.47;4982158;28;20200;-48
2023/07/06 09:40:03;;;;;;;5.45;1.70;;;;;;;16.40;91.92;101362.53;4977250;28;20573;-48
2023/07/06 09:42:29;;;;;;;6.07;1.42;;;;;;;17.05;90.52;101363.47;4977669;28;20216;-48
2023/07/06 09:44:55;;;;;;;3.38;1.65;;;;;;;17.19;87.68;101364.50;4985191;28;20292;-48
2023/07/06 09:47:22;;;;;;;4.53;1.67;;;;;;;17.26;85.99;101366.75;4974845;28;20186;-48
2023/07/06 09:49:54;;;;;;;6.25;1.63;;;;;;;17.12;85.75;101369.41;4971779;28;20236;-48
2023/07/06 09:52:21;;;;;;;4.40;1.67;;;;;;;16.94;85.47;101370.41;4974668;28;20533;-47
2023/07/06 09:55:11;;;;;;;6.07;1.60;;;;;;;16.65;86.34;101383.72;4980172;28;20200;-47
2023/07/06 09:57:40;;;;;;;6.80;1.80;;;;;;;16.91;86.59;101382.28;4977405;28;20202;-48
2023/07/06 10:00:15;;;;;;;5.93;1.88;;;;;;;16.68;86.33;101379.00;4978167;28;20194;-48
2023/07/06 10:02:50;;;;;;;4.30;1.70;;;;;;;16.75;86.29;101382.25;4974321;28;20182;-48
2023/07/06 10:05:16;;;;;;;6.38;1.40;;;;;;;16.82;86.90;101374.69;4980531;28;20225;-49
2023/07/06 10:08:19;;;;;;;3.75;1.40;;;;;;;16.98;85.74;101386.41;4982784;28;20602;-49
2023/07/06 10:10:53;;;;;;;5.68;1.75;;;;;;;17.03;85.45;101380.72;4977557;28;20185;-48
2023/07/06 10:13:38;;;;;;;10.00;1.98;;;;;;;16.95;85.75;101393.84;4979323;28;20185;-49
2023/07/06 10:16:23;;;;;;;4.70;1.75;;;;;;;16.83;85.88;101393.53;4981924;28;20659;-49
2023/07/06 10:18:54;;;;;;;3.17;1.40;;;;;;;16.95;85.49;101392.00;4979492;28;20201;-48
2023/07/06 10:21:33;;;;;;;5.45;1.67;;;;;;;17.11;84.26;101388.44;4975845;28;20201;-49
2023/07/06 10:24:08;;;;;;;7.57;2.00;;;;;;;17.39;83.06;101390.44;4979155;28;20217;-48
2023/07/06 10:26:40;;;;;;;6.45;2.00;;;;;;;17.53;82.51;101390.47;4975537;28;20578;-47
2023/07/06 10:29:16;;;;;;;5.28;1.77;;;;;;;17.58;82.09;101393.81;4977058;28;20555;-50
2023/07/06 10:32:04;;;;;;;3.22;1.83;;;;;;;17.55;81.08;101390.41;4982124;28;20280;-49
2023/07/06 10:35:01;;;;;;;8.15;1.67;;;;;;;17.56;80.54;101394.84;4977761;28;20302;-48
2023/07/06 10:37:28;;;;;;;5.13;1.35;;;;;;;17.44;81.15;101397.31;4980898;28;20189;-49
2023/07/06 10:39:59;;;;;;;2.95;1.50;;;;;;;17.29;82.34;101398.19;4981334;28;20228;-48
2023/07/06 10:42:27;;;;;;;4.90;1.50;;;;;;;17.28;82.46;101404.59;4980249;28;20560;-49
2023/07/06 10:44:55;;;;;;;4.22;1.67;;;;;;;17.60;82.51;101418.09;4972061;28;20217;-48
2023/07/06 10:47:35;;;;;;;2.72;1.40;;;;;;;17.52;81.23;101410.44;4975789;28;20289;-50
2023/07/06 10:50:07;;;;;;;5.10;1.50;;;;;;;18.15;79.59;101405.81;4980184;28;20264;-47
2023/07/06 10:52:36;;;;;;;6.47;1.42;;;;;;;18.77;76.54;101387.47;4994312;28;20787;-48
2023/07/06 10:55:10;;;;;;;2.40;1.15;;;;;;;18.28;74.72;101369.75;4982335;28;20283;-48
2023/07/06 10:57:42;;;;;;;3.92;1.60;;;;;;;18.32;75.11;101376.72;4980232;28;20276;-48
2023/07/06 11:00:18;;;;;;;4.05;1.63;;;;;;;18.37;74.67;101379.16;4972508;28;20177;-47
2023/07/06 11:02:45;;;;;;;3.53;1.38;;;;;;;18.10;74.91;101390.75;4973615;28;20185;-49
2023/07/06 11:05:25;;;;;;;6.00;1.50;;;;;;;18.30;73.72;101385.91;4973267;28;20313;-48
2023/07/06 11:07:54;;;;;;;5.22;1.50;;;;;;;17.88;73.40;101388.41;4977878;28;20251;-48
2023/07/06 11:10:22;;;;;;;6.68;1.50;;;;;;;18.19;73.51;101400.16;4977341;28;20194;-48
2023/07/06 11:12:55;;;;;;;5.55;1.55;;;;;;;18.12;73.56;101394.19;4974162;28;20240;-49
2023/07/06 11:15:31;;;;;;;3.20;1.50;;;;;;;18.56;73.09;101394.25;4975198;28;20216;-48
2023/07/06 11:18:02;;;;;;;7.20;1.83;;;;;;;19.19;72.92;101398.41;4973842;28;20174;-50
2023/07/06 11:20:29;;;;;;;3.78;1.65;;;;;;;19.89;71.26;101387.41;4978739;28;20239;-48
2023/07/06 11:23:03;;;;;;;5.03;1.40;;;;;;;19.59;69.62;101382.19;4989507;28;20178;-48
2023/07/06 11:25:31;;;;;;;4.90;1.65;;;;;;;19.16;69.82;101382.34;4978129;28;20296;-49
2023/07/06 11:28:06;;;;;;;5.70;1.40;;;;;;;18.86;70.63;101399.63;4981070;28;20170;-47
2023/07/06 11:30:54;;;;;;;4.18;1.30;;;;;;;18.63;70.38;101391.09;4994287;28;20178;-49